createdAt,value
2019-02-07T00:00:37.493Z,8.16
2019-02-07T00:01:37.517Z,8.18
2019-02-07T00:02:37.534Z,8.23
2019-02-07T00:03:37.548Z,8.20
2019-02-07T00:04:38.263Z,8.20
2019-02-07T00:05:37.575Z,8.18
2019-02-07T00:06:37.591Z,8.20
2019-02-07T00:07:37.611Z,8.23
2019-02-07T00:08:37.627Z,8.16
2019-02-07T00:09:37.640Z,8.23
2019-02-07T00:10:37.659Z,8.20
2019-02-07T00:11:37.675Z,8.23
2019-02-07T00:12:37.692Z,8.23
2019-02-07T00:13:37.705Z,8.16
2019-02-07T00:14:39.868Z,8.18
2019-02-07T00:15:37.744Z,8.15
2019-02-07T00:16:37.756Z,8.15
2019-02-07T00:17:37.770Z,8.15
2019-02-07T00:18:37.790Z,8.18
2019-02-07T00:19:37.803Z,8.26
2019-02-07T00:20:37.822Z,8.16
2019-02-07T00:21:37.838Z,8.24
2019-02-07T00:22:39.294Z,8.20
2019-02-07T00:23:37.870Z,8.27
2019-02-07T00:24:42.885Z,8.20
2019-02-07T00:25:37.900Z,8.18
2019-02-07T00:26:37.919Z,8.18
2019-02-07T00:27:37.933Z,8.23
2019-02-07T00:28:37.950Z,8.19
2019-02-07T00:29:37.975Z,8.19
2019-02-07T00:30:37.982Z,8.18
2019-02-07T00:31:37.998Z,8.13
2019-02-07T00:32:38.016Z,8.12
2019-02-07T00:33:38.033Z,8.13
2019-02-07T00:34:38.050Z,8.19
2019-02-07T00:35:38.071Z,8.13
2019-02-07T00:36:38.081Z,8.09
2019-02-07T00:37:38.096Z,8.15
2019-02-07T00:38:38.112Z,8.16
2019-02-07T00:39:38.151Z,8.18
2019-02-07T00:40:38.149Z,8.12
2019-02-07T00:41:38.161Z,8.09
2019-02-07T00:42:38.181Z,8.15
2019-02-07T00:43:38.197Z,8.19
2019-02-07T00:44:38.215Z,8.09
2019-02-07T00:45:38.228Z,8.18
2019-02-07T00:46:38.247Z,8.18
2019-02-07T00:47:38.263Z,8.20
2019-02-07T00:48:38.287Z,8.23
2019-02-07T00:49:38.294Z,8.30
2019-02-07T00:50:38.309Z,8.24
2019-02-07T00:51:38.330Z,8.19
2019-02-07T00:52:38.349Z,8.15
2019-02-07T00:53:38.365Z,8.30
2019-02-07T00:54:38.379Z,8.33
2019-02-07T00:55:38.393Z,8.20
2019-02-07T00:56:39.861Z,8.28
2019-02-07T00:57:38.423Z,8.23
2019-02-07T00:58:38.440Z,8.26
2019-02-07T00:59:38.458Z,8.16
2019-02-07T01:00:38.473Z,8.19
2019-02-07T01:01:38.498Z,8.19
2019-02-07T01:02:38.505Z,8.19
2019-02-07T01:03:38.521Z,8.31
2019-02-07T01:04:38.540Z,8.33
2019-02-07T01:05:38.556Z,8.27
2019-02-07T01:06:38.570Z,8.30
2019-02-07T01:07:38.589Z,8.18
2019-02-07T01:08:38.603Z,8.20
2019-02-07T01:09:38.618Z,8.26
2019-02-07T01:10:38.641Z,8.20
2019-02-07T01:11:38.653Z,8.31
2019-02-07T01:12:38.671Z,8.30
2019-02-07T01:13:38.689Z,8.24
2019-02-07T01:14:38.704Z,8.28
2019-02-07T01:15:38.719Z,8.28
2019-02-07T01:16:38.733Z,8.33
2019-02-07T01:17:38.748Z,8.24
2019-02-07T01:18:38.767Z,8.26
2019-02-07T01:19:38.784Z,8.28
2019-02-07T01:20:38.799Z,8.19
2019-02-07T01:21:38.817Z,8.19
2019-02-07T01:22:38.837Z,8.24
2019-02-07T01:23:38.850Z,8.18
2019-02-07T01:24:38.862Z,8.31
2019-02-07T01:25:38.885Z,8.20
2019-02-07T01:26:38.897Z,8.19
2019-02-07T01:27:38.911Z,8.19
2019-02-07T01:28:38.928Z,8.24
2019-02-07T01:29:38.945Z,8.28
2019-02-07T01:30:38.959Z,8.26
2019-02-07T01:31:38.990Z,8.18
2019-02-07T01:32:38.995Z,8.24
2019-02-07T01:33:39.010Z,8.20
2019-02-07T01:34:39.027Z,8.28
2019-02-07T01:35:39.041Z,8.19
2019-02-07T01:36:39.058Z,8.28
2019-02-07T01:37:39.075Z,8.27
2019-02-07T01:38:39.090Z,8.28
2019-02-07T01:39:39.114Z,8.24
2019-02-07T01:40:39.122Z,8.16
2019-02-07T01:41:39.138Z,8.18
2019-02-07T01:42:39.154Z,8.20
2019-02-07T01:43:39.173Z,8.23
2019-02-07T01:44:39.193Z,8.28
2019-02-07T01:45:39.205Z,8.16
2019-02-07T01:46:39.222Z,8.16
2019-02-07T01:47:39.238Z,8.24
2019-02-07T01:48:39.261Z,8.20
2019-02-07T01:49:39.270Z,8.16
2019-02-07T01:50:39.288Z,8.19
2019-02-07T01:51:39.303Z,8.20
2019-02-07T01:52:39.317Z,8.16
2019-02-07T01:53:39.334Z,8.18
2019-02-07T01:54:39.352Z,8.18
2019-02-07T01:55:39.365Z,8.10
2019-02-07T01:56:39.382Z,8.15
2019-02-07T01:57:39.406Z,8.10
2019-02-07T01:58:39.415Z,8.12
2019-02-07T01:59:39.430Z,8.00
2019-02-07T02:00:39.449Z,8.05
2019-02-07T02:01:39.467Z,8.03
2019-02-07T02:02:39.480Z,8.03
2019-02-07T02:03:39.495Z,8.00
2019-02-07T02:04:39.513Z,8.00
2019-02-07T02:05:39.526Z,8.00
2019-02-07T02:06:39.549Z,8.00
2019-02-07T02:07:39.562Z,8.00
2019-02-07T02:08:39.577Z,8.01
2019-02-07T02:09:39.591Z,7.93
2019-02-07T02:10:39.610Z,7.97
2019-02-07T02:11:39.626Z,7.95
2019-02-07T02:12:39.640Z,7.95
2019-02-07T02:13:39.655Z,7.88
2019-02-07T02:14:39.673Z,7.98
2019-02-07T02:15:39.689Z,7.93
2019-02-07T02:16:39.707Z,7.82
2019-02-07T02:17:39.719Z,7.83
2019-02-07T02:18:39.736Z,7.73
2019-02-07T02:19:39.761Z,7.67
2019-02-07T02:20:39.770Z,7.76
2019-02-07T02:21:39.786Z,7.69
2019-02-07T02:22:39.808Z,7.67
2019-02-07T02:23:39.816Z,7.70
2019-02-07T02:24:39.835Z,7.67
2019-02-07T02:25:39.847Z,7.72
2019-02-07T02:26:39.866Z,7.61
2019-02-07T02:27:39.880Z,7.67
2019-02-07T02:28:39.901Z,7.63
2019-02-07T02:29:39.915Z,7.56
2019-02-07T02:30:39.931Z,7.54
2019-02-07T02:31:39.944Z,7.45
2019-02-07T02:32:39.961Z,7.40
2019-02-07T02:33:39.984Z,7.40
2019-02-07T02:34:39.992Z,7.39
2019-02-07T02:35:40.013Z,7.40
2019-02-07T02:36:40.024Z,7.42
2019-02-07T02:37:40.040Z,7.47
2019-02-07T02:38:40.147Z,7.32
2019-02-07T02:39:40.075Z,7.28
2019-02-07T02:40:40.088Z,7.32
2019-02-07T02:41:40.103Z,7.31
2019-02-07T02:42:40.120Z,7.31
2019-02-07T02:43:40.135Z,7.21
2019-02-07T02:44:40.155Z,7.20
2019-02-07T02:45:40.172Z,7.23
2019-02-07T02:46:40.184Z,7.17
2019-02-07T02:47:40.199Z,7.05
2019-02-07T02:48:40.217Z,7.05
2019-02-07T02:49:40.235Z,7.00
2019-02-07T02:50:40.245Z,7.13
2019-02-07T02:51:40.274Z,7.13
2019-02-07T02:52:40.520Z,7.14
2019-02-07T02:53:40.301Z,7.11
2019-02-07T02:54:40.308Z,7.11
2019-02-07T02:55:40.325Z,7.06
2019-02-07T02:56:40.343Z,6.95
2019-02-07T02:57:40.364Z,7.00
2019-02-07T02:58:40.376Z,7.02
2019-02-07T02:59:40.386Z,6.93
2019-02-07T03:00:40.402Z,6.99
2019-02-07T03:01:40.418Z,6.96
2019-02-07T03:02:40.433Z,7.02
2019-02-07T03:03:40.450Z,7.02
2019-02-07T03:04:40.472Z,6.96
2019-02-07T03:05:40.481Z,6.93
2019-02-07T03:06:40.495Z,6.93
2019-02-07T03:07:40.511Z,6.89
2019-02-07T03:08:40.531Z,6.92
2019-02-07T03:09:40.545Z,6.92
2019-02-07T03:10:40.560Z,6.99
2019-02-07T03:11:40.685Z,6.99
2019-02-07T03:12:40.593Z,6.88
2019-02-07T03:13:40.605Z,6.93
2019-02-07T03:14:40.623Z,6.89
2019-02-07T03:15:49.357Z,6.88
2019-02-07T03:16:40.653Z,6.88
2019-02-07T03:17:40.666Z,6.87
2019-02-07T03:18:40.684Z,6.84
2019-02-07T03:19:40.702Z,6.96
2019-02-07T03:20:40.717Z,6.85
2019-02-07T03:21:40.734Z,6.87
2019-02-07T03:22:40.759Z,6.89
2019-02-07T03:23:40.759Z,6.87
2019-02-07T03:24:40.778Z,6.84
2019-02-07T03:25:40.793Z,6.81
2019-02-07T03:26:40.806Z,6.84
2019-02-07T03:27:40.828Z,6.77
2019-02-07T03:28:40.839Z,6.78
2019-02-07T03:29:40.854Z,6.74
2019-02-07T03:30:40.871Z,6.72
2019-02-07T03:31:40.886Z,6.67
2019-02-07T03:32:40.900Z,6.72
2019-02-07T03:33:40.913Z,6.70
2019-02-07T03:34:40.930Z,6.74
2019-02-07T03:35:40.944Z,6.74
2019-02-07T03:36:40.963Z,6.78
2019-02-07T03:37:40.976Z,6.74
2019-02-07T03:38:40.992Z,6.72
2019-02-07T03:39:41.010Z,6.70
2019-02-07T03:40:41.031Z,6.74
2019-02-07T03:41:41.040Z,6.69
2019-02-07T03:42:41.055Z,6.74
2019-02-07T03:43:41.068Z,6.74
2019-02-07T03:44:41.088Z,6.79
2019-02-07T03:45:41.108Z,6.79
2019-02-07T03:46:41.113Z,6.81
2019-02-07T03:47:41.132Z,6.82
2019-02-07T03:48:41.144Z,6.89
2019-02-07T03:49:41.161Z,6.92
2019-02-07T03:50:41.181Z,6.82
2019-02-07T03:51:41.196Z,6.85
2019-02-07T03:52:41.214Z,6.89
2019-02-07T03:53:41.233Z,6.89
2019-02-07T03:54:41.238Z,6.89
2019-02-07T03:55:41.260Z,6.88
2019-02-07T03:56:41.273Z,6.92
2019-02-07T03:57:41.285Z,6.95
2019-02-07T03:58:41.298Z,6.96
2019-02-07T03:59:41.320Z,6.93
2019-02-07T04:00:41.331Z,6.89
2019-02-07T04:01:41.352Z,6.93
2019-02-07T04:02:41.366Z,6.95
2019-02-07T04:03:41.379Z,6.89
2019-02-07T04:04:41.391Z,6.92
2019-02-07T04:05:41.409Z,6.89
2019-02-07T04:06:41.423Z,6.89
2019-02-07T04:07:41.437Z,6.95
2019-02-07T04:08:41.455Z,6.84
2019-02-07T04:09:41.472Z,6.93
2019-02-07T04:10:43.258Z,6.95
2019-02-07T04:11:41.505Z,6.97
2019-02-07T04:12:41.519Z,6.96
2019-02-07T04:13:41.532Z,7.02
2019-02-07T04:14:41.549Z,7.00
2019-02-07T04:15:41.560Z,6.96
2019-02-07T04:16:41.583Z,6.99
2019-02-07T04:17:41.594Z,6.93
2019-02-07T04:18:41.609Z,6.99
2019-02-07T04:19:41.623Z,7.11
2019-02-07T04:20:41.639Z,7.07
2019-02-07T04:21:41.670Z,7.05
2019-02-07T04:22:41.679Z,7.07
2019-02-07T04:23:41.685Z,7.07
2019-02-07T04:24:41.701Z,7.11
2019-02-07T04:25:41.716Z,7.07
2019-02-07T04:26:41.736Z,7.13
2019-02-07T04:27:41.752Z,7.11
2019-02-07T04:28:41.772Z,7.07
2019-02-07T04:29:41.781Z,7.10
2019-02-07T04:30:41.796Z,7.06
2019-02-07T04:31:41.816Z,7.06
2019-02-07T04:32:41.829Z,7.06
2019-02-07T04:33:41.843Z,7.14
2019-02-07T04:34:41.860Z,7.07
2019-02-07T04:35:41.873Z,7.05
2019-02-07T04:36:41.890Z,7.03
2019-02-07T04:37:41.905Z,7.07
2019-02-07T04:38:41.921Z,7.07
2019-02-07T04:39:41.939Z,7.07
2019-02-07T04:40:41.953Z,7.15
2019-02-07T04:41:41.969Z,7.15
2019-02-07T04:42:41.981Z,7.06
2019-02-07T04:43:42.000Z,7.13
2019-02-07T04:44:42.017Z,7.11
2019-02-07T04:45:42.030Z,7.05
2019-02-07T04:46:42.045Z,7.07
2019-02-07T04:47:42.065Z,7.06
2019-02-07T04:48:42.077Z,7.13
2019-02-07T04:49:42.096Z,7.05
2019-02-07T04:50:42.107Z,7.13
2019-02-07T04:51:42.131Z,7.20
2019-02-07T04:52:42.146Z,7.06
2019-02-07T04:53:42.279Z,7.05
2019-02-07T04:54:42.169Z,7.18
2019-02-07T04:55:42.187Z,7.17
2019-02-07T04:56:42.203Z,7.23
2019-02-07T04:57:42.221Z,7.20
2019-02-07T04:58:42.241Z,7.05
2019-02-07T04:59:42.252Z,7.18
2019-02-07T05:00:42.266Z,7.18
2019-02-07T05:01:42.290Z,7.21
2019-02-07T05:02:42.304Z,7.17
2019-02-07T05:03:42.311Z,7.21
2019-02-07T05:04:42.329Z,7.29
2019-02-07T05:05:42.343Z,7.23
2019-02-07T05:06:42.361Z,7.21
2019-02-07T05:07:42.378Z,7.13
2019-02-07T05:08:42.393Z,7.20
2019-02-07T05:09:42.410Z,7.28
2019-02-07T05:10:42.423Z,7.21
2019-02-07T05:11:42.442Z,7.23
2019-02-07T05:12:42.452Z,7.25
2019-02-07T05:13:42.467Z,7.29
2019-02-07T05:14:42.483Z,7.18
2019-02-07T05:15:42.506Z,7.23
2019-02-07T05:16:43.775Z,7.29
2019-02-07T05:17:42.532Z,7.31
2019-02-07T05:18:42.546Z,7.28
2019-02-07T05:19:42.566Z,7.31
2019-02-07T05:20:42.581Z,7.29
2019-02-07T05:21:42.596Z,7.45
2019-02-07T05:22:42.612Z,7.40
2019-02-07T05:23:42.631Z,7.35
2019-02-07T05:24:42.645Z,7.43
2019-02-07T05:25:42.661Z,7.45
2019-02-07T05:26:42.676Z,7.48
2019-02-07T05:27:42.689Z,7.42
2019-02-07T05:28:42.707Z,7.35
2019-02-07T05:29:42.724Z,7.42
2019-02-07T05:30:42.739Z,7.40
2019-02-07T05:31:42.757Z,7.39
2019-02-07T05:32:42.779Z,7.50
2019-02-07T05:33:42.795Z,7.43
2019-02-07T05:34:42.824Z,7.42
2019-02-07T05:35:42.816Z,7.51
2019-02-07T05:36:42.836Z,7.43
2019-02-07T05:37:42.850Z,7.42
2019-02-07T05:38:42.866Z,7.32
2019-02-07T05:39:42.885Z,7.33
2019-02-07T05:40:42.895Z,7.42
2019-02-07T05:41:42.910Z,7.33
2019-02-07T05:42:42.929Z,7.39
2019-02-07T05:43:42.942Z,7.42
2019-02-07T05:44:42.961Z,7.45
2019-02-07T05:45:42.985Z,7.42
2019-02-07T05:46:50.768Z,7.48
2019-02-07T05:47:43.059Z,7.50
2019-02-07T05:48:43.025Z,7.57
2019-02-07T05:49:43.040Z,7.56
2019-02-07T05:50:43.054Z,7.50
2019-02-07T05:51:43.071Z,7.51
2019-02-07T05:52:43.089Z,7.54
2019-02-07T05:53:43.101Z,7.57
2019-02-07T05:54:43.117Z,7.56
2019-02-07T05:55:43.133Z,7.53
2019-02-07T05:56:43.155Z,7.57
2019-02-07T05:57:43.165Z,7.56
2019-02-07T05:58:43.189Z,7.57
2019-02-07T05:59:43.203Z,7.53
2019-02-07T06:00:43.216Z,7.51
2019-02-07T06:01:43.228Z,7.56
2019-02-07T06:02:43.245Z,7.51
2019-02-07T06:03:43.261Z,7.67
2019-02-07T06:04:43.289Z,7.66
2019-02-07T06:05:43.295Z,7.61
2019-02-07T06:06:43.315Z,7.58
2019-02-07T06:07:43.324Z,7.66
2019-02-07T06:08:43.342Z,7.69
2019-02-07T06:09:43.357Z,7.63
2019-02-07T06:10:43.374Z,7.61
2019-02-07T06:11:43.398Z,7.61
2019-02-07T06:12:43.411Z,7.67
2019-02-07T06:13:43.427Z,7.63
2019-02-07T06:14:43.442Z,7.70
2019-02-07T06:15:43.532Z,7.66
2019-02-07T06:16:43.468Z,7.67
2019-02-07T06:17:43.483Z,7.58
2019-02-07T06:18:43.506Z,7.57
2019-02-07T06:19:43.515Z,7.69
2019-02-07T06:20:43.533Z,7.58
2019-02-07T06:21:43.546Z,7.57
2019-02-07T06:22:43.567Z,7.66
2019-02-07T06:23:43.581Z,7.60
2019-02-07T06:24:43.598Z,7.61
2019-02-07T06:25:43.617Z,7.67
2019-02-07T06:26:43.630Z,7.70
2019-02-07T06:27:43.642Z,7.69
2019-02-07T06:28:43.663Z,7.66
2019-02-07T06:29:43.675Z,7.66
2019-02-07T06:30:43.690Z,7.61
2019-02-07T06:31:43.708Z,7.66
2019-02-07T06:32:43.722Z,7.61
2019-02-07T06:33:43.737Z,7.73
2019-02-07T06:34:43.756Z,7.72
2019-02-07T06:35:43.779Z,7.67
2019-02-07T06:36:43.790Z,7.69
2019-02-07T06:37:43.805Z,7.72
2019-02-07T06:38:43.820Z,7.69
2019-02-07T06:39:43.834Z,7.58
2019-02-07T06:40:43.852Z,7.61
2019-02-07T06:41:43.866Z,7.58
2019-02-07T06:42:43.884Z,7.67
2019-02-07T06:43:43.903Z,7.72
2019-02-07T06:44:43.915Z,7.66
2019-02-07T06:45:43.930Z,7.69
2019-02-07T06:46:43.953Z,7.63
2019-02-07T06:47:43.960Z,7.72
2019-02-07T06:48:43.989Z,7.66
2019-02-07T06:49:43.998Z,7.63
2019-02-07T06:50:44.017Z,7.61
2019-02-07T06:51:44.024Z,7.67
2019-02-07T06:52:44.042Z,7.79
2019-02-07T06:53:44.055Z,7.69
2019-02-07T06:54:44.073Z,7.79
2019-02-07T06:55:44.093Z,7.79
2019-02-07T06:56:44.109Z,7.77
2019-02-07T06:57:44.120Z,7.73
2019-02-07T06:58:44.140Z,7.77
2019-02-07T06:59:44.152Z,7.79
2019-02-07T07:00:44.171Z,7.70
2019-02-07T07:01:44.182Z,7.72
2019-02-07T07:02:44.200Z,7.79
2019-02-07T07:03:44.214Z,7.79
2019-02-07T07:04:44.233Z,7.79
2019-02-07T07:05:44.244Z,7.79
2019-02-07T07:06:44.261Z,7.79
2019-02-07T07:07:44.283Z,7.80
2019-02-07T07:08:44.293Z,7.80
2019-02-07T07:09:44.313Z,7.76
2019-02-07T07:10:44.326Z,7.73
2019-02-07T07:11:44.400Z,7.72
2019-02-07T07:12:44.358Z,7.80
2019-02-07T07:13:44.375Z,7.87
2019-02-07T07:14:44.390Z,7.80
2019-02-07T07:15:44.407Z,7.80
2019-02-07T07:16:44.523Z,7.80
2019-02-07T07:17:44.435Z,7.76
2019-02-07T07:18:44.453Z,7.82
2019-02-07T07:19:44.470Z,7.83
2019-02-07T07:20:44.493Z,7.76
2019-02-07T07:21:44.504Z,7.83
2019-02-07T07:22:44.515Z,7.85
2019-02-07T07:23:44.534Z,7.80
2019-02-07T07:24:44.548Z,7.83
2019-02-07T07:25:44.564Z,7.82
2019-02-07T07:26:44.591Z,7.82
2019-02-07T07:27:44.605Z,7.85
2019-02-07T07:28:44.615Z,7.80
2019-02-07T07:29:44.628Z,7.77
2019-02-07T07:30:44.642Z,7.85
2019-02-07T07:31:44.660Z,7.80
2019-02-07T07:32:44.674Z,7.79
2019-02-07T07:33:44.699Z,7.82
2019-02-07T07:34:44.709Z,7.82
2019-02-07T07:35:44.724Z,7.82
2019-02-07T07:36:44.742Z,7.82
2019-02-07T07:37:44.756Z,7.95
2019-02-07T07:38:44.773Z,7.91
2019-02-07T07:39:44.791Z,7.97
2019-02-07T07:40:44.803Z,7.95
2019-02-07T07:41:44.820Z,7.93
2019-02-07T07:42:44.834Z,7.94
2019-02-07T07:43:44.850Z,7.95
2019-02-07T07:44:44.869Z,7.90
2019-02-07T07:45:44.884Z,7.98
2019-02-07T07:46:44.901Z,7.85
2019-02-07T07:47:44.922Z,7.94
2019-02-07T07:48:44.930Z,8.03
2019-02-07T07:49:44.954Z,7.95
2019-02-07T07:50:44.964Z,8.06
2019-02-07T07:51:45.017Z,7.98
2019-02-07T07:52:44.995Z,8.06
2019-02-07T07:53:45.014Z,7.97
2019-02-07T07:54:45.031Z,8.05
2019-02-07T07:55:45.044Z,8.12
2019-02-07T07:56:45.064Z,8.10
2019-02-07T07:57:45.077Z,8.13
2019-02-07T07:58:45.092Z,8.08
2019-02-07T07:59:45.112Z,8.16
2019-02-07T08:00:45.136Z,8.20
2019-02-07T08:01:45.143Z,8.20
2019-02-07T08:02:45.159Z,8.15
2019-02-07T08:03:45.173Z,8.15
2019-02-07T08:04:45.190Z,8.18
2019-02-07T08:05:45.204Z,8.20
2019-02-07T08:06:45.221Z,8.15
2019-02-07T08:07:45.238Z,8.12
2019-02-07T08:08:45.256Z,8.12
2019-02-07T08:09:45.274Z,8.10
2019-02-07T08:10:45.286Z,8.12
2019-02-07T08:11:45.306Z,8.05
2019-02-07T08:12:45.325Z,8.05
2019-02-07T08:13:45.335Z,8.06
2019-02-07T08:14:45.358Z,8.19
2019-02-07T08:15:45.376Z,8.23
2019-02-07T08:16:45.393Z,8.15
2019-02-07T08:17:47.380Z,8.12
2019-02-07T08:18:45.418Z,8.15
2019-02-07T08:19:45.440Z,8.13
2019-02-07T08:20:45.454Z,8.16
2019-02-07T08:21:45.479Z,8.18
2019-02-07T08:22:45.484Z,8.26
2019-02-07T08:23:45.499Z,8.20
2019-02-07T08:24:45.513Z,8.24
2019-02-07T08:25:45.529Z,8.26
2019-02-07T08:26:45.555Z,8.23
2019-02-07T08:27:45.564Z,8.23
2019-02-07T08:28:45.578Z,8.27
2019-02-07T08:29:45.594Z,8.18
2019-02-07T08:30:45.613Z,8.18
2019-02-07T08:31:45.629Z,8.28
2019-02-07T08:32:45.648Z,8.36
2019-02-07T08:33:45.662Z,8.36
2019-02-07T08:34:45.676Z,8.37
2019-02-07T08:35:45.692Z,8.44
2019-02-07T08:36:45.708Z,8.33
2019-02-07T08:37:45.727Z,8.38
2019-02-07T08:38:45.743Z,8.44
2019-02-07T08:39:45.757Z,8.48
2019-02-07T08:40:45.782Z,8.49
2019-02-07T08:41:45.792Z,8.38
2019-02-07T08:42:45.806Z,8.28
2019-02-07T08:43:45.823Z,8.36
2019-02-07T08:44:45.842Z,8.37
2019-02-07T08:45:45.866Z,8.41
2019-02-07T08:46:45.873Z,8.37
2019-02-07T08:47:45.896Z,8.46
2019-02-07T08:48:45.904Z,8.37
2019-02-07T08:49:45.923Z,8.37
2019-02-07T08:50:46.091Z,8.37
2019-02-07T08:51:45.961Z,8.38
2019-02-07T08:52:45.972Z,8.34
2019-02-07T08:53:45.994Z,8.33
2019-02-07T08:54:46.003Z,8.27
2019-02-07T08:55:46.020Z,8.34
2019-02-07T08:56:46.037Z,8.31
2019-02-07T08:57:46.053Z,8.26
2019-02-07T08:58:46.069Z,8.36
2019-02-07T08:59:46.096Z,8.31
2019-02-07T09:00:46.112Z,8.28
2019-02-07T09:01:46.118Z,8.34
2019-02-07T09:02:51.784Z,8.33
2019-02-07T09:03:46.249Z,8.37
2019-02-07T09:04:46.169Z,8.41
2019-02-07T09:05:46.184Z,8.45
2019-02-07T09:06:46.200Z,8.45
2019-02-07T09:07:46.217Z,8.53
2019-02-07T09:08:46.234Z,8.48
2019-02-07T09:09:46.251Z,8.56
2019-02-07T09:10:46.264Z,8.52
2019-02-07T09:11:46.280Z,8.46
2019-02-07T09:12:46.403Z,8.48
2019-02-07T09:13:46.317Z,8.46
2019-02-07T09:14:46.332Z,8.49
2019-02-07T09:15:46.350Z,8.51
2019-02-07T09:16:46.366Z,8.51
2019-02-07T09:17:46.382Z,8.53
2019-02-07T09:18:46.395Z,8.63
2019-02-07T09:19:46.520Z,8.63
2019-02-07T09:20:46.431Z,8.61
2019-02-07T09:21:46.453Z,8.70
2019-02-07T09:22:46.461Z,8.69
2019-02-07T09:23:46.481Z,8.70
2019-02-07T09:24:46.494Z,8.73
2019-02-07T09:25:46.514Z,8.58
2019-02-07T09:26:46.527Z,8.55
2019-02-07T09:27:46.552Z,8.70
2019-02-07T09:28:46.560Z,8.58
2019-02-07T09:29:46.577Z,8.55
2019-02-07T09:30:46.595Z,8.64
2019-02-07T09:31:46.611Z,8.70
2019-02-07T09:32:46.629Z,8.56
2019-02-07T09:33:46.642Z,8.67
2019-02-07T09:34:46.669Z,8.67
2019-02-07T09:35:46.680Z,8.71
2019-02-07T09:36:46.701Z,8.73
2019-02-07T09:37:46.719Z,8.76
2019-02-07T09:38:46.734Z,8.70
2019-02-07T09:39:46.741Z,8.67
2019-02-07T09:40:46.765Z,8.73
2019-02-07T09:41:46.776Z,8.71
2019-02-07T09:42:46.793Z,8.79
2019-02-07T09:43:46.811Z,8.88
2019-02-07T09:44:46.826Z,8.82
2019-02-07T09:45:46.840Z,8.84
2019-02-07T09:46:46.860Z,8.79
2019-02-07T09:47:46.877Z,8.91
2019-02-07T09:48:46.897Z,8.92
2019-02-07T09:49:46.907Z,8.91
2019-02-07T09:50:46.923Z,8.95
2019-02-07T09:51:46.940Z,9.04
2019-02-07T09:52:46.963Z,9.08
2019-02-07T09:53:46.976Z,8.95
2019-02-07T09:54:46.997Z,8.99
2019-02-07T09:55:47.016Z,9.06
2019-02-07T09:56:47.029Z,8.99
2019-02-07T09:57:47.040Z,9.04
2019-02-07T09:58:47.067Z,9.03
2019-02-07T09:59:47.076Z,9.16
2019-02-07T10:00:47.097Z,9.11
2019-02-07T10:01:47.107Z,9.19
2019-02-07T10:02:47.126Z,9.11
2019-02-07T10:03:47.145Z,9.22
2019-02-07T10:04:47.161Z,9.25
2019-02-07T10:05:47.176Z,9.22
2019-02-07T10:06:47.199Z,9.23
2019-02-07T10:07:47.218Z,9.34
2019-02-07T10:08:47.226Z,9.36
2019-02-07T10:09:47.243Z,9.43
2019-02-07T10:10:47.258Z,9.34
2019-02-07T10:11:47.275Z,9.37
2019-02-07T10:12:47.294Z,9.36
2019-02-07T10:13:47.310Z,9.36
2019-02-07T10:14:47.332Z,9.29
2019-02-07T10:15:47.352Z,9.47
2019-02-07T10:16:47.361Z,9.44
2019-02-07T10:17:47.384Z,9.44
2019-02-07T10:18:47.393Z,9.56
2019-02-07T10:19:47.419Z,9.61
2019-02-07T10:20:47.431Z,9.56
2019-02-07T10:21:47.444Z,9.59
2019-02-07T10:22:47.468Z,9.59
2019-02-07T10:23:47.478Z,9.64
2019-02-07T10:24:47.500Z,9.56
2019-02-07T10:25:47.514Z,9.72
2019-02-07T10:26:47.529Z,9.72
2019-02-07T10:27:47.547Z,9.72
2019-02-07T10:28:47.566Z,9.73
2019-02-07T10:29:47.583Z,9.84
2019-02-07T10:30:47.599Z,9.73
2019-02-07T10:31:47.618Z,9.79
2019-02-07T10:32:47.632Z,9.82
2019-02-07T10:33:47.652Z,9.83
2019-02-07T10:34:47.665Z,9.84
2019-02-07T10:35:47.687Z,9.74
2019-02-07T10:36:47.701Z,9.68
2019-02-07T10:37:47.748Z,9.68
2019-02-07T10:38:47.734Z,9.59
2019-02-07T10:39:47.755Z,9.58
2019-02-07T10:40:47.771Z,9.59
2019-02-07T10:41:47.792Z,9.73
2019-02-07T10:42:47.809Z,9.73
2019-02-07T10:43:47.824Z,9.74
2019-02-07T10:44:47.840Z,9.89
2019-02-07T10:45:47.857Z,9.84
2019-02-07T10:46:47.872Z,9.89
2019-02-07T10:47:48.092Z,9.91
2019-02-07T10:48:47.906Z,9.86
2019-02-07T10:49:58.662Z,9.86
2019-02-07T10:50:47.943Z,9.97
2019-02-07T10:51:47.959Z,10.09
2019-02-07T10:52:47.978Z,10.16
2019-02-07T10:53:47.995Z,10.10
2019-02-07T10:54:48.012Z,10.10
2019-02-07T10:55:48.050Z,10.09
2019-02-07T10:56:48.047Z,10.15
2019-02-07T10:57:48.070Z,10.22
2019-02-07T10:58:48.089Z,10.25
2019-02-07T10:59:48.097Z,10.35
2019-02-07T11:00:48.117Z,10.41
2019-02-07T11:01:48.132Z,10.37
2019-02-07T11:02:48.151Z,10.54
2019-02-07T11:03:48.166Z,10.42
2019-02-07T11:04:48.191Z,10.49
2019-02-07T11:05:48.202Z,10.59
2019-02-07T11:06:48.221Z,10.57
2019-02-07T11:07:48.243Z,10.41
2019-02-07T11:08:48.255Z,10.48
2019-02-07T11:09:48.271Z,10.34
2019-02-07T11:10:48.299Z,10.42
2019-02-07T11:11:48.316Z,10.31
2019-02-07T11:12:48.328Z,10.33
2019-02-07T11:13:48.345Z,10.28
2019-02-07T11:14:48.451Z,10.28
2019-02-07T11:15:48.378Z,10.23
2019-02-07T11:16:48.404Z,10.23
2019-02-07T11:17:48.422Z,10.16
2019-02-07T11:18:55.250Z,10.22
2019-02-07T11:19:48.457Z,10.34
2019-02-07T11:20:48.469Z,10.25
2019-02-07T11:21:48.483Z,10.26
2019-02-07T11:22:48.510Z,10.30
2019-02-07T11:23:48.519Z,10.41
2019-02-07T11:24:48.637Z,10.44
2019-02-07T11:25:48.553Z,10.61
2019-02-07T11:26:48.571Z,10.49
2019-02-07T11:27:48.592Z,10.59
2019-02-07T11:28:48.607Z,10.63
2019-02-07T11:29:48.624Z,10.74
2019-02-07T11:30:48.642Z,10.71
2019-02-07T11:31:48.662Z,10.76
2019-02-07T11:32:48.679Z,10.75
2019-02-07T11:33:48.696Z,10.64
2019-02-07T11:34:48.716Z,10.63
2019-02-07T11:35:48.734Z,10.59
2019-02-07T11:36:54.238Z,10.54
2019-02-07T11:37:48.775Z,10.59
2019-02-07T11:38:48.793Z,10.56
2019-02-07T11:39:48.810Z,10.64
2019-02-07T11:40:48.822Z,10.63
2019-02-07T11:41:48.837Z,10.61
2019-02-07T11:42:48.857Z,10.60
2019-02-07T11:43:48.881Z,10.63
2019-02-07T11:44:50.692Z,10.68
2019-02-07T11:45:48.913Z,10.74
2019-02-07T11:46:49.121Z,10.72
2019-02-07T11:47:48.944Z,10.71
2019-02-07T11:48:48.964Z,10.74
2019-02-07T11:49:48.986Z,10.67
2019-02-07T11:50:48.997Z,10.72
2019-02-07T11:51:49.024Z,10.61
2019-02-07T11:52:49.040Z,10.59
2019-02-07T11:53:49.053Z,10.63
2019-02-07T11:54:49.078Z,10.68
2019-02-07T11:55:49.089Z,10.68
2019-02-07T11:56:49.112Z,10.64
2019-02-07T11:57:49.123Z,10.74
2019-02-07T11:58:49.145Z,10.71
2019-02-07T11:59:49.171Z,10.63
2019-02-07T12:00:49.946Z,10.56
2019-02-07T12:01:49.195Z,10.69
2019-02-07T12:02:49.212Z,10.59
2019-02-07T12:03:49.229Z,10.67
2019-02-07T12:04:49.249Z,10.63
2019-02-07T12:05:49.272Z,10.63
2019-02-07T12:06:49.284Z,10.64
2019-02-07T12:07:49.301Z,10.59
2019-02-07T12:08:49.327Z,10.56
2019-02-07T12:09:49.339Z,10.57
2019-02-07T12:10:49.358Z,10.48
2019-02-07T12:11:49.372Z,10.42
2019-02-07T12:12:49.442Z,10.44
2019-02-07T12:13:49.412Z,10.56
2019-02-07T12:14:49.428Z,10.57
2019-02-07T12:15:49.445Z,10.57
2019-02-07T12:16:49.470Z,10.57
2019-02-07T12:17:49.478Z,10.46
2019-02-07T12:18:49.497Z,10.49
2019-02-07T12:19:49.516Z,10.60
2019-02-07T12:20:49.534Z,10.63
2019-02-07T12:21:49.552Z,10.68
2019-02-07T12:22:49.568Z,10.57
2019-02-07T12:23:49.585Z,10.63
2019-02-07T12:24:49.612Z,10.63
2019-02-07T12:25:49.624Z,10.63
2019-02-07T12:26:49.638Z,10.71
2019-02-07T12:27:49.656Z,10.68
2019-02-07T12:28:49.675Z,10.76
2019-02-07T12:29:49.694Z,10.74
2019-02-07T12:30:49.710Z,10.78
2019-02-07T12:31:49.727Z,10.72
2019-02-07T12:32:49.753Z,10.69
2019-02-07T12:33:49.767Z,10.71
2019-02-07T12:34:49.781Z,10.63
2019-02-07T12:35:49.800Z,10.75
2019-02-07T12:36:49.820Z,10.75
2019-02-07T12:37:49.838Z,10.75
2019-02-07T12:38:49.854Z,10.86
2019-02-07T12:39:49.911Z,10.78
2019-02-07T12:40:49.894Z,10.74
2019-02-07T12:41:49.906Z,10.60
2019-02-07T12:42:50.075Z,10.67
2019-02-07T12:43:49.945Z,10.56
2019-02-07T12:44:49.962Z,10.74
2019-02-07T12:45:49.979Z,10.67
2019-02-07T12:46:49.998Z,10.64
2019-02-07T12:47:50.019Z,10.67
2019-02-07T12:48:50.032Z,10.71
2019-02-07T12:49:50.049Z,10.71
2019-02-07T12:50:50.072Z,10.72
2019-02-07T12:51:50.086Z,10.64
2019-02-07T12:52:50.106Z,10.78
2019-02-07T12:53:50.122Z,10.72
2019-02-07T12:54:50.140Z,10.74
2019-02-07T12:55:52.405Z,10.75
2019-02-07T12:56:50.177Z,10.89
2019-02-07T12:57:50.198Z,10.90
2019-02-07T12:58:50.210Z,10.79
2019-02-07T12:59:50.228Z,10.69
2019-02-07T13:00:50.249Z,10.84
2019-02-07T13:01:50.263Z,10.75
2019-02-07T13:02:50.281Z,10.79
2019-02-07T13:03:50.301Z,10.89
2019-02-07T13:04:50.325Z,10.93
2019-02-07T13:05:50.339Z,10.90
2019-02-07T13:06:50.359Z,10.92
2019-02-07T13:07:50.373Z,10.90
2019-02-07T13:08:50.390Z,10.90
2019-02-07T13:09:50.416Z,10.84
2019-02-07T13:10:50.424Z,10.81
2019-02-07T13:11:50.444Z,10.87
2019-02-07T13:12:50.619Z,10.79
2019-02-07T13:13:50.493Z,10.69